Back to Top

Language: 

My Weather Underground Personal Weather Station Historical Data with Graphs...

Delerius Weather Station Historical Data
Daily Summary for November 17, 2017 Units:  English    Metric   Both
« Previous Day
Next Day »
Daily Weekly Monthly Yearly Custom
  High: Low: Average:
Temperature: 46.8 °F 34.5 °F 41 °F
Dew Point: 41.4 °F 32.4 °F 37.1 °F
Humidity: 95 % 79 % 86 %
Wind Speed: 17.0 mph 0.0 mph 5 mph
Wind Gust: 28.0 mph - -
Wind:- - West
Pressure: 30.38 in 30.18 in -
Precipitation: 0.00 in    
Historical Graphs
 
 
Tabular Data for November 17, 2017
Time Temperature Dew Point Pressure Wind Wind Speed Wind Gust Humidity Rainfall Rate (Hourly) solar Conditions
00:02 40.6 °F 37.4 °F 30.36 in WNW 3.0 mph 5.0 mph 88 % 0.00 in 0 W/m2
00:07 40.6 °F 37.4 °F 30.36 in NNW 2.0 mph 5.0 mph 88 % 0.00 in 0 W/m2
00:12 40.6 °F 37.4 °F 30.36 in WNW 3.0 mph 5.0 mph 88 % 0.00 in 0 W/m2
00:17 40.6 °F 37.4 °F 30.36 in WNW 1.0 mph 2.0 mph 88 % 0.00 in 0 W/m2
00:22 40.5 °F 37.2 °F 30.36 in Calm   1.0 mph 88 % 0.00 in 0 W/m2
00:27 40.1 °F 36.5 °F 30.36 in WNW 2.0 mph 4.0 mph 87 % 0.00 in 0 W/m2
00:32 39.9 °F 36.7 °F 30.36 in WNW 3.0 mph 4.0 mph 88 % 0.00 in 0 W/m2
00:37 39.6 °F 36.3 °F 30.36 in WNW 4.0 mph 6.0 mph 88 % 0.00 in 0 W/m2
00:42 39.6 °F 36.3 °F 30.36 in WNW 2.0 mph 4.0 mph 88 % 0.00 in 0 W/m2
00:47 39.4 °F 36.1 °F 30.36 in WNW 2.0 mph 5.0 mph 88 % 0.00 in 0 W/m2
00:52 39.2 °F 36.2 °F 30.36 in Calm   2.0 mph 89 % 0.00 in 0 W/m2
00:58 38.8 °F 35.6 °F 30.36 in Calm   2.0 mph 88 % 0.00 in 0 W/m2
01:03 38.5 °F 35.2 °F 30.36 in WNW 2.0 mph 5.0 mph 88 % 0.00 in 0 W/m2
01:08 38.1 °F 34.9 °F 30.36 in Calm   1.0 mph 88 % 0.00 in 0 W/m2
01:13 37.9 °F 35.0 °F 30.36 in Calm     89 % 0.00 in 0 W/m2
01:18 37.6 °F 34.3 °F 30.36 in NW 2.0 mph 3.0 mph 88 % 0.00 in 0 W/m2
01:23 37.2 °F 34.3 °F 30.36 in NW 4.0 mph 6.0 mph 89 % 0.00 in 0 W/m2
01:28 37.2 °F 34.6 °F 30.36 in NW 3.0 mph 6.0 mph 90 % 0.00 in 0 W/m2
01:33 37.2 °F 34.6 °F 30.36 in Calm   2.0 mph 90 % 0.00 in 0 W/m2
01:38 37.0 °F 34.4 °F 30.36 in NW 1.0 mph 2.0 mph 90 % 0.00 in 0 W/m2
01:43 37.0 °F 34.4 °F 30.36 in Calm   1.0 mph 90 % 0.00 in 0 W/m2
01:48 36.7 °F 34.0 °F 30.36 in NW 1.0 mph 5.0 mph 90 % 0.00 in 0 W/m2
01:53 36.7 °F 34.0 °F 30.36 in NW 3.0 mph 5.0 mph 90 % 0.00 in 0 W/m2
01:58 36.7 °F 34.3 °F 30.36 in NW 2.0 mph 4.0 mph 91 % 0.00 in 0 W/m2
02:03 36.5 °F 34.1 °F 30.36 in NW 2.0 mph 4.0 mph 91 % 0.00 in 0 W/m2
02:08 36.5 °F 34.1 °F 30.36 in NW 3.0 mph 5.0 mph 91 % 0.00 in 0 W/m2
02:13 36.7 °F 34.6 °F 30.36 in NW 3.0 mph 5.0 mph 92 % 0.00 in 0 W/m2
02:18 37.0 °F 34.9 °F 30.36 in NW 4.0 mph 7.0 mph 92 % 0.00 in 0 W/m2
02:23 37.4 °F 35.6 °F 30.36 in NW 2.0 mph 5.0 mph 93 % 0.00 in 0 W/m2
02:28 37.6 °F 35.5 °F 30.36 in NW 1.0 mph 5.0 mph 92 % 0.00 in 0 W/m2
02:33 37.6 °F 35.5 °F 30.36 in NW 1.0 mph 3.0 mph 92 % 0.00 in 0 W/m2
02:38 37.6 °F 35.5 °F 30.36 in NW 1.0 mph 2.0 mph 92 % 0.00 in 0 W/m2
02:43 37.6 °F 35.5 °F 30.36 in NW 3.0 mph 5.0 mph 92 % 0.00 in 0 W/m2
02:48 37.8 °F 35.6 °F 30.36 in NW 3.0 mph 6.0 mph 92 % 0.00 in 0 W/m2
02:49 37.8 °F 35.6 °F 30.36 in NW 4.0 mph 6.0 mph 92 % 0.00 in 0 W/m2
02:54 38.1 °F 36.3 °F 30.36 in NW 1.0 mph 4.0 mph 93 % 0.00 in 0 W/m2
02:59 38.3 °F 36.2 °F 30.36 in Calm     92 % 0.00 in 0 W/m2
03:09 38.1 °F 35.7 °F 30.36 in Calm     91 % 0.00 in 0 W/m2
03:14 38.1 °F 35.7 °F 30.36 in Calm     91 % 0.00 in 0 W/m2
03:20 37.9 °F 35.5 °F 30.36 in Calm     91 % 0.00 in 0 W/m2
03:22 37.9 °F 35.5 °F 30.36 in Calm     91 % 0.00 in 0 W/m2
03:23 37.9 °F 35.5 °F 30.36 in Calm     91 % 0.00 in 0 W/m2
03:25 37.8 °F 35.4 °F 30.36 in Calm     91 % 0.00 in 0 W/m2
03:26 37.8 °F 35.4 °F 30.36 in Calm     91 % 0.00 in 0 W/m2
03:30 37.6 °F 35.2 °F 30.36 in Calm     91 % 0.00 in 0 W/m2
03:32 37.6 °F 34.9 °F 30.36 in Calm     90 % 0.00 in 0 W/m2
03:42 37.2 °F 34.8 °F 30.36 in Calm     91 % 0.00 in 0 W/m2
03:52 36.7 °F 34.3 °F 30.36 in Calm     91 % 0.00 in 0 W/m2
03:57 36.5 °F 34.1 °F 30.36 in Calm     91 % 0.00 in 0 W/m2
04:02 36.3 °F 33.9 °F 30.36 in Calm     91 % 0.00 in 0 W/m2
04:07 36.1 °F 33.8 °F 30.36 in Calm     91 % 0.00 in 0 W/m2
04:12 36.0 °F 33.6 °F 30.36 in Calm     91 % 0.00 in 0 W/m2
04:17 36.0 °F 33.6 °F 30.36 in Calm     91 % 0.00 in 0 W/m2
04:22 35.8 °F 33.7 °F 30.36 in Calm     92 % 0.00 in 0 W/m2
04:27 35.8 °F 33.7 °F 30.36 in Calm     92 % 0.00 in 0 W/m2
04:33 35.6 °F 33.5 °F 30.36 in Calm     92 % 0.00 in 0 W/m2
04:38 35.4 °F 33.3 °F 30.36 in Calm     92 % 0.00 in 0 W/m2
04:43 35.4 °F 33.3 °F 30.36 in Calm     92 % 0.00 in 0 W/m2
04:48 35.4 °F 33.3 °F 30.36 in Calm     92 % 0.00 in 0 W/m2
04:53 35.2 °F 33.1 °F 30.36 in Calm     92 % 0.00 in 0 W/m2
04:58 35.2 °F 33.1 °F 30.36 in NW 1.0 mph 4.0 mph 92 % 0.00 in 0 W/m2
05:03 35.2 °F 33.4 °F 30.36 in NW 2.0 mph 4.0 mph 93 % 0.00 in 0 W/m2
05:08 35.2 °F 33.4 °F 30.36 in Calm     93 % 0.00 in 0 W/m2
05:18 35.1 °F 33.0 °F 30.36 in Calm     92 % 0.00 in 0 W/m2
05:23 34.9 °F 32.8 °F 30.36 in Calm     92 % 0.00 in 0 W/m2
05:28 34.5 °F 32.4 °F 30.36 in Calm   1.0 mph 92 % 0.00 in 0 W/m2
05:33 34.5 °F 32.7 °F 30.35 in NW 3.0 mph 5.0 mph 93 % 0.00 in 0 W/m2
05:38 34.9 °F 33.3 °F 30.36 in NW 1.0 mph 4.0 mph 94 % 0.00 in 0 W/m2
05:43 34.9 °F 33.1 °F 30.36 in Calm     93 % 0.00 in 0 W/m2
05:48 34.9 °F 33.1 °F 30.36 in Calm     93 % 0.00 in 0 W/m2
05:53 34.7 °F 32.9 °F 30.36 in NW 3.0 mph 4.0 mph 93 % 0.00 in 0 W/m2
05:58 34.9 °F 33.1 °F 30.36 in NW 4.0 mph 5.0 mph 93 % 0.00 in 0 W/m2
06:03 35.1 °F 33.5 °F 30.36 in NW 3.0 mph 5.0 mph 94 % 0.00 in 0 W/m2
06:08 35.2 °F 33.7 °F 30.36 in WNW 3.0 mph 5.0 mph 94 % 0.00 in 0 W/m2
06:13 35.2 °F 33.7 °F 30.36 in WNW 4.0 mph 5.0 mph 94 % 0.00 in 0 W/m2
06:18 35.2 °F 33.7 °F 30.36 in WNW 4.0 mph 6.0 mph 94 % 0.00 in 0 W/m2
06:23 35.4 °F 33.9 °F 30.36 in WNW 4.0 mph 5.0 mph 94 % 0.00 in 0 W/m2
06:28 35.4 °F 33.9 °F 30.36 in WNW 3.0 mph 5.0 mph 94 % 0.00 in 0 W/m2
06:33 35.4 °F 33.9 °F 30.35 in WNW 4.0 mph 5.0 mph 94 % 0.00 in 0 W/m2
06:38 35.8 °F 34.2 °F 30.36 in WNW 5.0 mph 6.0 mph 94 % 0.00 in 0 W/m2
06:43 35.8 °F 34.2 °F 30.36 in WNW 5.0 mph 6.0 mph 94 % 0.00 in 0 W/m2
06:48 36.0 °F 34.4 °F 30.36 in WNW 2.0 mph 5.0 mph 94 % 0.00 in 0 W/m2
06:53 35.8 °F 34.0 °F 30.36 in Calm     93 % 0.00 in 0 W/m2
06:58 35.8 °F 34.0 °F 30.36 in Calm     93 % 0.00 in 0 W/m2
07:03 35.4 °F 33.6 °F 30.36 in Calm     93 % 0.00 in 0 W/m2
07:08 35.2 °F 33.1 °F 30.36 in Calm     92 % 0.00 in 0 W/m2
07:13 34.9 °F 33.1 °F 30.36 in Calm     93 % 0.00 in 0 W/m2
07:18 34.9 °F 33.1 °F 30.36 in Calm     93 % 0.00 in 0 W/m2
07:23 34.5 °F 32.7 °F 30.36 in Calm     93 % 0.00 in 0 W/m2
07:28 34.5 °F 32.7 °F 30.36 in Calm   1.0 mph 93 % 0.00 in 0 W/m2
07:33 34.5 °F 32.7 °F 30.36 in Calm     93 % 0.00 in 5 W/m2
07:40 34.5 °F 32.7 °F 30.36 in WNW 1.0 mph 2.0 mph 93 % 0.00 in 9 W/m2
07:45 34.5 °F 33.0 °F 30.37 in Calm   1.0 mph 94 % 0.00 in 11 W/m2
07:50 34.5 °F 33.0 °F 30.37 in Calm     94 % 0.00 in 14 W/m2
07:55 34.5 °F 33.0 °F 30.37 in Calm     94 % 0.00 in 16 W/m2
08:00 34.7 °F 33.2 °F 30.36 in Calm     94 % 0.00 in 18 W/m2
08:05 34.9 °F 33.3 °F 30.36 in Calm   1.0 mph 94 % 0.00 in 21 W/m2
08:10 34.9 °F 33.3 °F 30.37 in Calm   2.0 mph 94 % 0.00 in 23 W/m2
08:15 35.1 °F 33.5 °F 30.37 in Calm     94 % 0.00 in 25 W/m2
08:20 35.2 °F 33.7 °F 30.37 in Calm     94 % 0.00 in 25 W/m2
08:25 35.4 °F 34.1 °F 30.37 in SW 1.0 mph 4.0 mph 95 % 0.00 in 25 W/m2
08:30 35.8 °F 34.2 °F 30.37 in Calm     94 % 0.00 in 26 W/m2
08:35 35.8 °F 34.2 °F 30.38 in Calm     94 % 0.00 in 33 W/m2
08:40 35.8 °F 34.2 °F 30.38 in Calm   2.0 mph 94 % 0.00 in 42 W/m2
08:42 35.8 °F 34.2 °F 30.38 in Calm     94 % 0.00 in 46 W/m2
08:47 36.0 °F 34.4 °F 30.38 in Calm     94 % 0.00 in 51 W/m2
08:52 36.1 °F 34.8 °F 30.38 in Calm     95 % 0.00 in 83 W/m2
08:57 36.3 °F 35.0 °F 30.38 in Calm     95 % 0.00 in 53 W/m2
09:02 36.7 °F 35.4 °F 30.38 in Calm     95 % 0.00 in 46 W/m2
09:07 37.0 °F 35.7 °F 30.37 in Calm     95 % 0.00 in 51 W/m2
09:12 37.6 °F 36.3 °F 30.37 in Calm   2.0 mph 95 % 0.00 in 54 W/m2
09:17 37.9 °F 36.6 °F 30.36 in Calm   2.0 mph 95 % 0.00 in 44 W/m2
09:22 38.1 °F 36.8 °F 30.37 in Calm   2.0 mph 95 % 0.00 in 44 W/m2
09:27 38.5 °F 37.2 °F 30.36 in SSE 1.0 mph 4.0 mph 95 % 0.00 in 113 W/m2
09:32 39.0 °F 37.7 °F 30.36 in Calm     95 % 0.00 in 121 W/m2
09:37 39.6 °F 38.2 °F 30.36 in Calm   2.0 mph 95 % 0.00 in 121 W/m2
09:42 39.9 °F 38.3 °F 30.36 in Calm   1.0 mph 94 % 0.00 in 81 W/m2
09:47 40.5 °F 38.9 °F 30.36 in Calm   1.0 mph 94 % 0.00 in 218 W/m2
09:52 41.0 °F 39.4 °F 30.36 in Calm     94 % 0.00 in 230 W/m2
09:57 41.7 °F 40.1 °F 30.36 in Calm     94 % 0.00 in 204 W/m2
10:02 42.3 °F 40.4 °F 30.36 in NW 1.0 mph 2.0 mph 93 % 0.00 in 251 W/m2
10:07 43.0 °F 40.8 °F 30.36 in West 4.0 mph 8.0 mph 92 % 0.00 in 258 W/m2
10:08 43.2 °F 41.0 °F 30.36 in West 4.0 mph 6.0 mph 92 % 0.00 in 267 W/m2
10:13 43.7 °F 41.0 °F 30.37 in West 4.0 mph 8.0 mph 90 % 0.00 in 348 W/m2
10:18 44.4 °F 41.4 °F 30.37 in West 3.0 mph 6.0 mph 89 % 0.00 in 116 W/m2
10:23 44.8 °F 41.1 °F 30.37 in West 6.0 mph 9.0 mph 87 % 0.00 in 135 W/m2
10:33 44.8 °F 40.5 °F 30.37 in West 8.0 mph 14.0 mph 85 % 0.00 in 308 W/m2
10:38 45.0 °F 40.7 °F 30.37 in West 8.0 mph 12.0 mph 85 % 0.00 in 116 W/m2
10:43 45.1 °F 40.6 °F 30.37 in West 9.0 mph 15.0 mph 84 % 0.00 in 292 W/m2
10:48 45.5 °F 40.9 °F 30.37 in West 8.0 mph 14.0 mph 84 % 0.00 in 318 W/m2
10:53 45.9 °F 41.3 °F 30.37 in West 7.0 mph 11.0 mph 84 % 0.00 in 360 W/m2
10:55 45.9 °F 41.0 °F 30.37 in West 8.0 mph 11.0 mph 83 % 0.00 in 371 W/m2
11:00 46.2 °F 41.3 °F 30.37 in West 6.0 mph 10.0 mph 83 % 0.00 in 378 W/m2
11:05 46.6 °F 41.1 °F 30.37 in West 8.0 mph 11.0 mph 81 % 0.00 in 183 W/m2
11:10 46.8 °F 41.2 °F 30.37 in West 8.0 mph 12.0 mph 81 % 0.00 in 278 W/m2
11:15 46.8 °F 40.9 °F 30.36 in WSW 8.0 mph 12.0 mph 80 % 0.00 in 148 W/m2
11:20 46.6 °F 40.7 °F 30.36 in West 7.0 mph 12.0 mph 80 % 0.00 in 153 W/m2
11:25 46.2 °F 40.4 °F 30.36 in WSW 9.0 mph 13.0 mph 80 % 0.00 in 148 W/m2
11:30 45.9 °F 40.0 °F 30.36 in WSW 10.0 mph 16.0 mph 80 % 0.00 in 174 W/m2
11:35 45.9 °F 40.0 °F 30.36 in WSW 9.0 mph 15.0 mph 80 % 0.00 in 218 W/m2
11:40 45.9 °F 40.4 °F 30.35 in WSW 8.0 mph 15.0 mph 81 % 0.00 in 243 W/m2
11:45 46.2 °F 40.4 °F 30.36 in WSW 10.0 mph 15.0 mph 80 % 0.00 in 234 W/m2
11:55 46.6 °F 40.7 °F 30.35 in WSW 8.0 mph 13.0 mph 80 % 0.00 in 221 W/m2
12:00 46.6 °F 40.4 °F 30.35 in West 12.0 mph 21.0 mph 79 % 0.00 in 237 W/m2
12:05 46.8 °F 40.6 °F 30.35 in WSW 11.0 mph 16.0 mph 79 % 0.00 in 299 W/m2
12:10 46.8 °F 40.9 °F 30.35 in West 10.0 mph 15.0 mph 80 % 0.00 in 190 W/m2
12:15 46.6 °F 40.7 °F 30.35 in West 7.0 mph 13.0 mph 80 % 0.00 in 76 W/m2
12:20 46.6 °F 40.7 °F 30.35 in WSW 8.0 mph 16.0 mph 80 % 0.00 in 79 W/m2
12:25 46.2 °F 40.7 °F 30.34 in WSW 6.0 mph 10.0 mph 81 % 0.00 in 141 W/m2
12:30 46.2 °F 40.7 °F 30.34 in WSW 8.0 mph 11.0 mph 81 % 0.00 in 163 W/m2
12:35 46.2 °F 41.0 °F 30.34 in WSW 6.0 mph 9.0 mph 82 % 0.00 in 176 W/m2
12:40 46.4 °F 40.9 °F 30.34 in WSW 7.0 mph 10.0 mph 81 % 0.00 in 141 W/m2
12:45 46.6 °F 41.1 °F 30.34 in WSW 6.0 mph 9.0 mph 81 % 0.00 in 125 W/m2
12:50 46.6 °F 40.7 °F 30.34 in West 9.0 mph 13.0 mph 80 % 0.00 in 114 W/m2
13:00 46.8 °F 40.9 °F 30.33 in West 7.0 mph 12.0 mph 80 % 0.00 in 127 W/m2
13:05 46.8 °F 40.6 °F 30.33 in West 8.0 mph 14.0 mph 79 % 0.00 in 114 W/m2
13:10 46.8 °F 40.9 °F 30.33 in West 6.0 mph 11.0 mph 80 % 0.00 in 102 W/m2
13:11 46.8 °F 40.9 °F 30.33 in West 7.0 mph 11.0 mph 80 % 0.00 in 100 W/m2
13:16 46.6 °F 40.7 °F 30.32 in West 9.0 mph 16.0 mph 80 % 0.00 in 83 W/m2
13:21 46.4 °F 40.6 °F 30.32 in West 11.0 mph 19.0 mph 80 % 0.00 in 72 W/m2
13:26 46.4 °F 40.6 °F 30.32 in West 10.0 mph 21.0 mph 80 % 0.00 in 76 W/m2
13:31 46.2 °F 40.4 °F 30.31 in West 12.0 mph 16.0 mph 80 % 0.00 in 84 W/m2
13:36 46.2 °F 40.4 °F 30.31 in West 11.0 mph 18.0 mph 80 % 0.00 in 62 W/m2
13:41 46.2 °F 40.4 °F 30.31 in WSW 12.0 mph 18.0 mph 80 % 0.00 in 46 W/m2
13:46 46.2 °F 40.4 °F 30.31 in West 5.0 mph 9.0 mph 80 % 0.00 in 39 W/m2
13:51 46.2 °F 40.1 °F 30.31 in West 8.0 mph 13.0 mph 79 % 0.00 in 35 W/m2
13:56 46.0 °F 39.9 °F 30.31 in West 14.0 mph 21.0 mph 79 % 0.00 in 39 W/m2
14:01 46.0 °F 39.9 °F 30.30 in West 14.0 mph 21.0 mph 79 % 0.00 in 37 W/m2
14:06 46.0 °F 39.9 °F 30.30 in West 13.0 mph 19.0 mph 79 % 0.00 in 35 W/m2
14:11 45.9 °F 40.0 °F 30.30 in West 11.0 mph 18.0 mph 80 % 0.00 in 35 W/m2
14:16 45.7 °F 39.9 °F 30.30 in West 12.0 mph 22.0 mph 80 % 0.00 in 35 W/m2
14:17 45.7 °F 39.9 °F 30.30 in West 14.0 mph 22.0 mph 80 % 0.00 in 35 W/m2
14:22 45.7 °F 40.2 °F 30.29 in West 12.0 mph 18.0 mph 81 % 0.00 in 32 W/m2
14:27 45.5 °F 40.3 °F 30.29 in West 12.0 mph 21.0 mph 82 % 0.00 in 30 W/m2
14:32 45.3 °F 40.1 °F 30.29 in West 14.0 mph 20.0 mph 82 % 0.00 in 28 W/m2
14:37 45.3 °F 40.1 °F 30.30 in West 11.0 mph 19.0 mph 82 % 0.00 in 30 W/m2
14:42 45.3 °F 40.1 °F 30.30 in West 13.0 mph 21.0 mph 82 % 0.00 in 26 W/m2
14:47 45.3 °F 39.8 °F 30.30 in West 13.0 mph 19.0 mph 81 % 0.00 in 23 W/m2
14:52 45.3 °F 39.8 °F 30.30 in West 11.0 mph 20.0 mph 81 % 0.00 in 21 W/m2
14:57 45.3 °F 39.5 °F 30.30 in West 10.0 mph 14.0 mph 80 % 0.00 in 21 W/m2
15:02 45.3 °F 39.5 °F 30.30 in West 13.0 mph 18.0 mph 80 % 0.00 in 23 W/m2
15:07 45.3 °F 39.5 °F 30.30 in West 9.0 mph 14.0 mph 80 % 0.00 in 23 W/m2
15:12 45.3 °F 39.5 °F 30.31 in WSW 10.0 mph 15.0 mph 80 % 0.00 in 23 W/m2
15:17 45.1 °F 39.3 °F 30.31 in West 8.0 mph 13.0 mph 80 % 0.00 in 23 W/m2
15:22 45.1 °F 39.3 °F 30.31 in WSW 8.0 mph 12.0 mph 80 % 0.00 in 25 W/m2
15:27 45.1 °F 39.3 °F 30.31 in West 8.0 mph 12.0 mph 80 % 0.00 in 25 W/m2
15:32 45.1 °F 39.3 °F 30.30 in WSW 8.0 mph 11.0 mph 80 % 0.00 in 23 W/m2
15:37 45.1 °F 39.3 °F 30.30 in WSW 7.0 mph 11.0 mph 80 % 0.00 in 19 W/m2
15:42 45.1 °F 39.3 °F 30.30 in WSW 8.0 mph 11.0 mph 80 % 0.00 in 14 W/m2
15:47 45.1 °F 39.3 °F 30.30 in WSW 4.0 mph 8.0 mph 80 % 0.00 in 11 W/m2
15:52 45.0 °F 39.2 °F 30.30 in SW 7.0 mph 10.0 mph 80 % 0.00 in 9 W/m2
15:57 45.0 °F 38.8 °F 30.30 in SW 7.0 mph 11.0 mph 79 % 0.00 in 7 W/m2
16:02 45.0 °F 39.2 °F 30.30 in WSW 6.0 mph 11.0 mph 80 % 0.00 in 5 W/m2
16:07 44.8 °F 39.0 °F 30.29 in WSW 6.0 mph 10.0 mph 80 % 0.00 in 5 W/m2
16:12 44.4 °F 38.6 °F 30.30 in West 7.0 mph 13.0 mph 80 % 0.00 in 0 W/m2
16:17 44.4 °F 39.0 °F 30.29 in WSW 5.0 mph 10.0 mph 81 % 0.00 in 0 W/m2
16:22 44.2 °F 38.8 °F 30.29 in WSW 5.0 mph 10.0 mph 81 % 0.00 in 0 W/m2
16:27 44.1 °F 38.6 °F 30.29 in West 3.0 mph 8.0 mph 81 % 0.00 in 0 W/m2
16:32 43.9 °F 38.4 °F 30.29 in WSW 6.0 mph 10.0 mph 81 % 0.00 in 0 W/m2
16:37 43.7 °F 38.3 °F 30.28 in WSW 5.0 mph 12.0 mph 81 % 0.00 in 0 W/m2
16:42 43.5 °F 38.1 °F 30.29 in West 2.0 mph 9.0 mph 81 % 0.00 in 0 W/m2
16:47 43.3 °F 37.6 °F 30.29 in WNW 1.0 mph 6.0 mph 80 % 0.00 in 0 W/m2
16:52 43.3 °F 37.6 °F 30.29 in WNW 4.0 mph 9.0 mph 80 % 0.00 in 0 W/m2
16:57 43.3 °F 37.6 °F 30.29 in Calm   2.0 mph 80 % 0.00 in 0 W/m2
17:03 43.2 °F 37.4 °F 30.29 in South 3.0 mph 7.0 mph 80 % 0.00 in 0 W/m2
17:08 43.2 °F 37.4 °F 30.28 in Calm   2.0 mph 80 % 0.00 in 0 W/m2
17:13 43.0 °F 37.2 °F 30.28 in West 3.0 mph 9.0 mph 80 % 0.00 in 0 W/m2
17:18 43.0 °F 37.2 °F 30.28 in WSW 3.0 mph 8.0 mph 80 % 0.00 in 0 W/m2
17:23 42.8 °F 37.4 °F 30.28 in WSW 7.0 mph 14.0 mph 81 % 0.00 in 0 W/m2
17:28 43.0 °F 37.5 °F 30.28 in WSW 5.0 mph 8.0 mph 81 % 0.00 in 0 W/m2
17:33 42.8 °F 37.4 °F 30.28 in West 7.0 mph 12.0 mph 81 % 0.00 in 0 W/m2
17:38 42.6 °F 37.5 °F 30.28 in West 8.0 mph 12.0 mph 82 % 0.00 in 0 W/m2
17:43 42.8 °F 37.7 °F 30.27 in West 7.0 mph 12.0 mph 82 % 0.00 in 0 W/m2
17:48 42.8 °F 37.7 °F 30.27 in WSW 9.0 mph 12.0 mph 82 % 0.00 in 0 W/m2
17:53 43.0 °F 37.5 °F 30.27 in West 10.0 mph 15.0 mph 81 % 0.00 in 0 W/m2
17:58 43.0 °F 37.5 °F 30.27 in West 8.0 mph 13.0 mph 81 % 0.00 in 0 W/m2
18:03 43.2 °F 37.7 °F 30.27 in West 11.0 mph 16.0 mph 81 % 0.00 in 0 W/m2
18:08 43.2 °F 37.7 °F 30.26 in West 11.0 mph 18.0 mph 81 % 0.00 in 0 W/m2
18:09 43.2 °F 37.7 °F 30.26 in West 10.0 mph 18.0 mph 81 % 0.00 in 0 W/m2
18:14 43.2 °F 37.7 °F 30.26 in West 12.0 mph 21.0 mph 81 % 0.00 in 0 W/m2
18:19 43.2 °F 37.7 °F 30.26 in West 12.0 mph 19.0 mph 81 % 0.00 in 0 W/m2
18:23 43.0 °F 37.5 °F 30.26 in West 10.0 mph 16.0 mph 81 % 0.00 in 0 W/m2
18:28 43.2 °F 37.7 °F 30.26 in West 11.0 mph 20.0 mph 81 % 0.00 in 0 W/m2
18:33 43.2 °F 37.7 °F 30.26 in West 8.0 mph 14.0 mph 81 % 0.00 in 0 W/m2
18:38 43.0 °F 37.5 °F 30.26 in West 11.0 mph 16.0 mph 81 % 0.00 in 0 W/m2
18:43 43.2 °F 37.4 °F 30.26 in West 6.0 mph 12.0 mph 80 % 0.00 in 0 W/m2
18:48 43.0 °F 37.5 °F 30.26 in West 5.0 mph 8.0 mph 81 % 0.00 in 0 W/m2
18:53 43.0 °F 37.5 °F 30.26 in West 8.0 mph 12.0 mph 81 % 0.00 in 0 W/m2
18:58 43.0 °F 37.5 °F 30.26 in West 6.0 mph 10.0 mph 81 % 0.00 in 0 W/m2
19:03 42.8 °F 37.4 °F 30.25 in WSW 6.0 mph 13.0 mph 81 % 0.00 in 0 W/m2
19:08 42.8 °F 37.4 °F 30.25 in WSW 7.0 mph 14.0 mph 81 % 0.00 in 0 W/m2
19:13 42.6 °F 37.2 °F 30.25 in West 8.0 mph 14.0 mph 81 % 0.00 in 0 W/m2
19:18 42.6 °F 37.5 °F 30.26 in West 7.0 mph 13.0 mph 82 % 0.00 in 0 W/m2
19:23 42.6 °F 37.5 °F 30.26 in West 6.0 mph 12.0 mph 82 % 0.00 in 0 W/m2
19:28 42.6 °F 37.5 °F 30.26 in West 7.0 mph 12.0 mph 82 % 0.00 in 0 W/m2
19:33 42.6 °F 37.2 °F 30.25 in West 6.0 mph 9.0 mph 81 % 0.00 in 0 W/m2
19:38 42.4 °F 37.3 °F 30.25 in West 7.0 mph 11.0 mph 82 % 0.00 in 0 W/m2
19:43 42.6 °F 37.5 °F 30.25 in West 8.0 mph 12.0 mph 82 % 0.00 in 0 W/m2
19:48 42.6 °F 37.5 °F 30.25 in West 6.0 mph 13.0 mph 82 % 0.00 in 0 W/m2
19:53 42.6 °F 37.5 °F 30.25 in West 7.0 mph 11.0 mph 82 % 0.00 in 0 W/m2
19:58 42.6 °F 37.5 °F 30.25 in West 6.0 mph 10.0 mph 82 % 0.00 in 0 W/m2
20:08 42.8 °F 37.7 °F 30.25 in West 8.0 mph 11.0 mph 82 % 0.00 in 0 W/m2
20:13 42.8 °F 37.7 °F 30.25 in WSW 8.0 mph 12.0 mph 82 % 0.00 in 0 W/m2
20:18 42.8 °F 37.7 °F 30.24 in West 8.0 mph 12.0 mph 82 % 0.00 in 0 W/m2
20:23 42.6 °F 37.5 °F 30.24 in WSW 9.0 mph 16.0 mph 82 % 0.00 in 0 W/m2
20:28 42.6 °F 37.5 °F 30.24 in West 9.0 mph 18.0 mph 82 % 0.00 in 0 W/m2
20:33 42.6 °F 37.8 °F 30.23 in WSW 8.0 mph 13.0 mph 83 % 0.00 in 0 W/m2
20:38 42.6 °F 37.8 °F 30.24 in WSW 10.0 mph 16.0 mph 83 % 0.00 in 0 W/m2
20:43 42.6 °F 37.8 °F 30.24 in WSW 10.0 mph 15.0 mph 83 % 0.00 in 0 W/m2
20:48 42.6 °F 37.8 °F 30.24 in WSW 8.0 mph 13.0 mph 83 % 0.00 in 0 W/m2
20:53 42.4 °F 37.6 °F 30.24 in WSW 7.0 mph 12.0 mph 83 % 0.00 in 0 W/m2
20:58 42.4 °F 37.6 °F 30.24 in WSW 9.0 mph 13.0 mph 83 % 0.00 in 0 W/m2
21:03 42.4 °F 37.9 °F 30.24 in SW 7.0 mph 9.0 mph 84 % 0.00 in 0 W/m2
21:08 42.3 °F 37.8 °F 30.24 in SW 7.0 mph 13.0 mph 84 % 0.00 in 0 W/m2
21:13 42.3 °F 37.8 °F 30.24 in SW 5.0 mph 9.0 mph 84 % 0.00 in 0 W/m2
21:16 42.3 °F 37.8 °F 30.23 in SW 6.0 mph 10.0 mph 84 % 0.00 in 0 W/m2
21:21 42.1 °F 37.6 °F 30.24 in SSW 5.0 mph 7.0 mph 84 % 0.00 in 0 W/m2
21:26 41.9 °F 37.4 °F 30.23 in SW 4.0 mph 7.0 mph 84 % 0.00 in 0 W/m2
21:31 41.9 °F 37.4 °F 30.23 in SW 3.0 mph 7.0 mph 84 % 0.00 in 0 W/m2
21:36 41.7 °F 37.2 °F 30.23 in SW 1.0 mph 4.0 mph 84 % 0.00 in 0 W/m2
21:41 41.5 °F 37.1 °F 30.23 in SSW 1.0 mph 4.0 mph 84 % 0.00 in 0 W/m2
21:46 41.4 °F 36.9 °F 30.23 in Calm   2.0 mph 84 % 0.00 in 0 W/m2
21:51 41.2 °F 37.0 °F 30.22 in South 3.0 mph 6.0 mph 85 % 0.00 in 0 W/m2
21:56 41.2 °F 37.3 °F 30.22 in SSW 5.0 mph 8.0 mph 86 % 0.00 in 0 W/m2
22:01 41.4 °F 37.5 °F 30.22 in SSW 2.0 mph 6.0 mph 86 % 0.00 in 0 W/m2
22:06 41.4 °F 37.5 °F 30.22 in South 4.0 mph 8.0 mph 86 % 0.00 in 0 W/m2
22:11 41.4 °F 37.5 °F 30.22 in SW 1.0 mph 4.0 mph 86 % 0.00 in 0 W/m2
22:16 41.2 °F 37.3 °F 30.22 in SSW 1.0 mph 5.0 mph 86 % 0.00 in 0 W/m2
22:21 41.2 °F 37.0 °F 30.21 in SSW 1.0 mph 5.0 mph 85 % 0.00 in 0 W/m2
22:26 40.8 °F 37.0 °F 30.21 in WSW 5.0 mph 8.0 mph 86 % 0.00 in 0 W/m2
22:31 41.2 °F 37.6 °F 30.21 in South 2.0 mph 6.0 mph 87 % 0.00 in 0 W/m2
22:36 41.2 °F 37.3 °F 30.21 in Calm   2.0 mph 86 % 0.00 in 0 W/m2
22:41 41.2 °F 37.6 °F 30.21 in SW 3.0 mph 6.0 mph 87 % 0.00 in 0 W/m2
22:46 41.4 °F 37.5 °F 30.20 in West 7.0 mph 15.0 mph 86 % 0.00 in 0 W/m2
22:51 41.5 °F 38.0 °F 30.20 in West 8.0 mph 16.0 mph 87 % 0.00 in 0 W/m2
22:56 41.9 °F 38.0 °F 30.20 in West 11.0 mph 19.0 mph 86 % 0.00 in 0 W/m2
23:01 42.1 °F 38.2 °F 30.19 in West 12.0 mph 20.0 mph 86 % 0.00 in 0 W/m2
23:06 42.3 °F 38.4 °F 30.19 in West 9.0 mph 15.0 mph 86 % 0.00 in 0 W/m2
23:11 42.3 °F 38.1 °F 30.19 in West 13.0 mph 21.0 mph 85 % 0.00 in 0 W/m2
23:16 42.4 °F 38.2 °F 30.18 in West 15.0 mph 26.0 mph 85 % 0.00 in 0 W/m2
23:21 42.4 °F 38.2 °F 30.18 in West 15.0 mph 24.0 mph 85 % 0.00 in 0 W/m2
23:26 42.6 °F 38.4 °F 30.19 in West 17.0 mph 28.0 mph 85 % 0.00 in 0 W/m2
23:31 42.6 °F 38.4 °F 30.18 in West 13.0 mph 21.0 mph 85 % 0.00 in 0 W/m2
23:37 42.6 °F 38.4 °F 30.18 in West 15.0 mph 24.0 mph 85 % 0.00 in 0 W/m2
23:42 42.6 °F 38.4 °F 30.19 in West 13.0 mph 20.0 mph 85 % 0.00 in 0 W/m2
23:47 42.6 °F 38.4 °F 30.19 in WNW 15.0 mph 23.0 mph 85 % 0.00 in 0 W/m2
23:52 42.6 °F 38.4 °F 30.18 in WNW 15.0 mph 24.0 mph 85 % 0.00 in 0 W/m2
23:57 42.6 °F 38.4 °F 30.18 in WNW 16.0 mph 25.0 mph 85 % 0.00 in 0 W/m2
Delerius-Weather
Compliments of Weather Underground - 2.25 mb

Data updates at regular intervals.